Current Weather

Trenton Mercer

Trenton, New Jersey (KTTN)

Report from: Friday, February 23, 2024 3:53 PM EST
Current time: Friday, February 23, 2024 4:28 PM EST

Nearby weather – Weather history – Daily summaries
Weather forecast

Temperature7.8°C (46.0°F)
Wind chill5.0°C (41.0°F)
Dew point2.8°C (37.0°F)
Winds 9 kts (4.6 m/s, 10.4 mph) North-Northwest (340°)
Visibility10 mi. (16.1 km)
Clouds Few clouds 12,000 ft. (3,658 m)
Altimeter29.45 in.Hg (997 mB)
Relative humidity71 %
Density altitude-184 ft. (-56 m)
Sea-level pressure99.7 kPa (997 mB, 29.43 in.Hg)
Remarks Automated weather observing station with precipitation discriminator
Pressure falling, then rising
Flight conditions Visual Meteorological Conditions
Raw dataKTTN 232053Z 34009KT 10SM FEW120 08/03 A2945 RMK AO2 SLP966 T00780028 55012
An error has occurred. This application may no longer respond until reloaded. Reload 🗙